Time;durP1;ratioP1;P1;durP2;ratioP2;P2;SDS_P1;SDS_P2;PMS_P1;PMS_P2;Temp;Humidity;BMP_temperature;BMP_pressure;BME280_temperature;BME280_humidity;BME280_pressure;Samples;Min_cycle;Max_cycle;Signal;HPM_P1;HPM_P2
2021/01/07 00:01:28;;;;;;;36.47;19.43;;;-0.80;99.90;;;;;;5077500;28;20281;-54
2021/01/07 00:03:53;;;;;;;38.33;19.43;;;-0.90;99.90;;;;;;5077834;28;20028;-54
2021/01/07 00:06:19;;;;;;;36.23;19.13;;;-0.90;99.90;;;;;;5078087;28;19908;-53
2021/01/07 00:08:45;;;;;;;37.23;20.27;;;-0.90;99.90;;;;;;5076429;28;20028;-54
2021/01/07 00:11:11;;;;;;;32.70;18.50;;;-0.90;99.90;;;;;;5077817;28;20051;-53
2021/01/07 00:13:38;;;;;;;31.33;17.13;;;-1.00;99.90;;;;;;5077600;28;20030;-53
2021/01/07 00:16:04;;;;;;;36.55;20.40;;;-1.00;99.90;;;;;;5078013;28;20664;-53
2021/01/07 00:18:30;;;;;;;33.90;18.85;;;-1.00;99.90;;;;;;5077552;28;20362;-53
2021/01/07 00:20:56;;;;;;;42.47;19.40;;;-1.00;99.90;;;;;;5089154;28;20116;-53
2021/01/07 00:23:21;;;;;;;38.87;20.27;;;-0.90;99.90;;;;;;5097679;28;19912;-53
2021/01/07 00:25:52;;;;;;;33.03;17.40;;;-0.90;99.90;;;;;;5097325;28;20430;-53
2021/01/07 00:28:19;;;;;;;38.55;19.50;;;-0.90;99.90;;;;;;5097599;28;20223;-53
2021/01/07 00:30:45;;;;;;;34.70;17.37;;;-1.00;99.90;;;;;;5097111;28;20268;-53
2021/01/07 00:33:12;;;;;;;38.40;18.30;;;-1.00;99.90;;;;;;5096387;28;20302;-53
2021/01/07 00:35:39;;;;;;;47.73;19.10;;;-1.00;99.90;;;;;;5097129;28;20256;-53
2021/01/07 00:38:04;;;;;;;41.40;18.07;;;-1.00;99.90;;;;;;5097016;28;20331;-54
2021/01/07 00:40:34;;;;;;;37.83;18.87;;;-1.00;99.90;;;;;;5097203;28;20356;-54
2021/01/07 00:43:01;;;;;;;32.53;18.47;;;-1.00;99.90;;;;;;5097582;28;20110;-53
2021/01/07 00:45:27;;;;;;;34.10;18.20;;;-1.00;99.90;;;;;;5097171;28;20243;-53
2021/01/07 00:47:52;;;;;;;32.50;17.83;;;-1.00;99.90;;;;;;5097489;28;20058;-54
2021/01/07 00:50:18;;;;;;;32.80;18.50;;;-1.10;99.90;;;;;;5097375;28;20344;-53
2021/01/07 00:52:44;;;;;;;34.07;18.37;;;-1.10;99.90;;;;;;5097181;28;20028;-55
2021/01/07 00:55:11;;;;;;;36.10;19.83;;;-1.20;99.90;;;;;;5096925;28;20435;-54
2021/01/07 00:57:37;;;;;;;31.33;18.13;;;-1.10;99.90;;;;;;5097137;28;20330;-54
2021/01/07 01:00:08;;;;;;;35.83;18.97;;;-1.20;99.90;;;;;;5096932;28;20413;-54
2021/01/07 01:02:33;;;;;;;36.53;16.80;;;-1.20;99.90;;;;;;5097131;28;20346;-54
2021/01/07 01:04:59;;;;;;;38.50;18.60;;;-1.20;99.90;;;;;;5095992;28;20371;-54
2021/01/07 01:07:26;;;;;;;36.93;19.87;;;-1.20;99.90;;;;;;5096880;28;20020;-54
2021/01/07 01:09:52;;;;;;;33.67;18.63;;;-1.10;99.90;;;;;;5096778;28;20024;-54
2021/01/07 01:12:18;;;;;;;35.45;18.35;;;-1.10;99.90;;;;;;5096818;28;20166;-54
2021/01/07 01:14:43;;;;;;;29.73;18.63;;;-1.10;99.90;;;;;;5096896;28;20370;-54
2021/01/07 01:17:09;;;;;;;31.63;17.83;;;-1.10;99.90;;;;;;5096762;28;20426;-54
2021/01/07 01:19:35;;;;;;;31.50;17.17;;;-1.20;99.90;;;;;;5095760;28;20085;-54
2021/01/07 01:22:00;;;;;;;35.17;18.03;;;-1.30;99.90;;;;;;5076163;28;20070;-54
2021/01/07 01:24:26;;;;;;;33.87;18.97;;;-1.40;99.90;;;;;;5076753;28;20044;-54
2021/01/07 01:26:56;;;;;;;34.77;17.80;;;-1.30;99.90;;;;;;5076685;28;19938;-54
2021/01/07 01:29:22;;;;;;;30.85;17.00;;;-1.30;99.90;;;;;;5076724;28;20373;-54
2021/01/07 01:31:48;;;;;;;29.80;15.53;;;-1.30;99.90;;;;;;5074480;28;20761;-54
2021/01/07 01:34:15;;;;;;;39.40;21.07;;;-1.40;99.90;;;;;;5076097;28;20220;-54
2021/01/07 01:36:41;;;;;;;46.53;22.47;;;-1.30;99.90;;;;;;5075453;28;20023;-54
2021/01/07 01:39:06;;;;;;;43.60;22.33;;;-1.40;99.90;;;;;;5076349;28;20687;-54
2021/01/07 01:41:39;;;;;;;52.27;23.07;;;-1.30;99.90;;;;;;5076398;28;20034;-54
2021/01/07 01:44:07;;;;;;;43.85;21.55;;;-1.30;99.90;;;;;;5076595;28;20029;-54
2021/01/07 01:46:32;;;;;;;48.70;21.67;;;-1.40;99.90;;;;;;5089032;28;20024;-54
2021/01/07 01:48:59;;;;;;;39.07;21.47;;;-1.40;99.90;;;;;;5096180;28;20048;-54
2021/01/07 01:51:24;;;;;;;37.43;20.37;;;-1.40;99.90;;;;;;5096692;28;20032;-54
2021/01/07 01:53:50;;;;;;;40.07;20.80;;;-1.30;99.90;;;;;;5096118;28;20697;-54
2021/01/07 01:56:17;;;;;;;36.90;21.03;;;-1.40;99.90;;;;;;5096528;28;20020;-54
2021/01/07 01:58:42;;;;;;;53.87;27.07;;;-1.40;99.90;;;;;;5096257;28;20332;-54
2021/01/07 02:01:08;;;;;;;54.67;27.33;;;-1.40;99.90;;;;;;5095941;28;20248;-54
2021/01/07 02:03:39;;;;;;;55.20;27.57;;;-1.40;99.90;;;;;;5096819;28;19919;-54
2021/01/07 02:06:10;;;;;;;47.40;23.47;;;-1.50;99.90;;;;;;5095950;28;20048;-55
2021/01/07 02:08:36;;;;;;;39.73;21.87;;;-1.50;99.90;;;;;;5096723;28;20398;-54
2021/01/07 02:11:02;;;;;;;39.03;22.77;;;-1.60;99.90;;;;;;5095937;28;20252;-55
2021/01/07 02:13:28;;;;;;;41.90;21.90;;;-1.50;99.90;;;;;;5096252;28;20070;-55
2021/01/07 02:15:53;;;;;;;40.17;22.60;;;-1.60;99.90;;;;;;5096485;28;20028;-55
2021/01/07 02:18:19;;;;;;;40.40;21.10;;;-1.60;99.90;;;;;;5095912;28;20028;-54
2021/01/07 02:20:44;;;;;;;35.37;17.97;;;-1.70;99.90;;;;;;5095316;28;20063;-54
2021/01/07 02:23:12;;;;;;;37.17;18.93;;;-1.80;99.90;;;;;;5096271;28;20115;-53
2021/01/07 02:25:38;;;;;;;32.00;17.33;;;-1.80;99.90;;;;;;5096016;28;20054;-54
2021/01/07 02:28:04;;;;;;;35.87;17.77;;;-1.80;99.90;;;;;;5096411;28;20252;-54
2021/01/07 02:30:30;;;;;;;37.40;20.47;;;-1.80;99.90;;;;;;5096317;28;20032;-54
2021/01/07 02:32:55;;;;;;;40.07;19.77;;;-1.80;99.90;;;;;;5095048;28;20263;-54
2021/01/07 02:35:21;;;;;;;35.80;19.90;;;-1.80;99.90;;;;;;5096547;28;20059;-54
2021/01/07 02:37:46;;;;;;;33.33;18.67;;;-1.80;99.90;;;;;;5094813;28;20390;-54
2021/01/07 02:40:13;;;;;;;39.97;19.73;;;-1.80;99.90;;;;;;5095573;28;20059;-54
2021/01/07 02:42:39;;;;;;;32.00;17.93;;;-1.80;99.90;;;;;;5096130;28;20323;-54
2021/01/07 02:45:08;;;;;;;39.53;23.27;;;-1.80;99.90;;;;;;5098790;28;20073;-54
2021/01/07 02:47:34;;;;;;;34.35;17.50;;;-1.80;99.90;;;;;;5099717;28;20419;-54
2021/01/07 02:50:00;;;;;;;37.33;20.50;;;-1.80;99.90;;;;;;5099485;28;20218;-54
2021/01/07 02:52:26;;;;;;;38.80;19.70;;;-1.90;99.90;;;;;;5099467;28;20223;-54
2021/01/07 02:54:51;;;;;;;36.23;19.40;;;-1.80;99.90;;;;;;5099250;28;20265;-54
2021/01/07 02:57:17;;;;;;;38.83;20.50;;;-1.80;99.90;;;;;;5099618;28;19915;-54
2021/01/07 02:59:43;;;;;;;37.87;19.67;;;-1.90;99.90;;;;;;5099687;28;20035;-54
2021/01/07 03:02:08;;;;;;;40.30;21.20;;;-2.00;99.90;;;;;;5099057;28;20118;-54
2021/01/07 03:04:34;;;;;;;36.27;19.83;;;-2.00;99.90;;;;;;5099448;28;19926;-54
2021/01/07 03:06:59;;;;;;;37.77;19.50;;;-2.00;99.90;;;;;;5099370;28;20028;-54
2021/01/07 03:09:25;;;;;;;39.70;21.50;;;-2.00;99.90;;;;;;5099523;28;20375;-54
2021/01/07 03:11:51;;;;;;;36.83;22.43;;;-2.00;99.90;;;;;;5098806;28;19908;-54
2021/01/07 03:14:16;;;;;;;39.57;21.73;;;-2.00;99.90;;;;;;5099410;28;20028;-54
2021/01/07 03:16:42;;;;;;;45.30;21.33;;;-1.90;99.90;;;;;;5098032;28;20031;-54
2021/01/07 03:19:07;;;;;;;44.20;22.47;;;-2.00;99.90;;;;;;5098959;28;20027;-54
2021/01/07 03:21:33;;;;;;;37.23;20.53;;;-1.90;99.90;;;;;;5081245;28;20340;-54
2021/01/07 03:23:59;;;;;;;42.30;21.30;;;-1.90;99.90;;;;;;5078602;28;20469;-54
2021/01/07 03:26:24;;;;;;;34.97;20.77;;;-1.90;99.90;;;;;;5077169;28;19908;-54
2021/01/07 03:28:50;;;;;;;41.47;21.57;;;-1.90;99.90;;;;;;5079125;28;20162;-54
2021/01/07 03:31:15;;;;;;;41.67;19.67;;;-1.90;99.90;;;;;;5082945;28;19911;-54
2021/01/07 03:33:41;;;;;;;39.83;19.57;;;-2.00;99.90;;;;;;5097803;28;20024;-54
2021/01/07 03:36:07;;;;;;;45.65;21.25;;;-2.00;99.90;;;;;;5097577;28;20031;-54
2021/01/07 03:38:32;;;;;;;38.20;19.17;;;-2.10;99.90;;;;;;5098452;28;20126;-54
2021/01/07 03:40:58;;;;;;;47.10;19.90;;;-2.00;99.90;;;;;;5097454;28;19915;-54
2021/01/07 03:43:23;;;;;;;37.10;20.03;;;-2.00;99.90;;;;;;5098385;28;20032;-54
2021/01/07 03:45:49;;;;;;;37.07;19.13;;;-2.10;99.90;;;;;;5099104;28;20028;-54
2021/01/07 03:48:15;;;;;;;42.00;19.50;;;-2.10;99.90;;;;;;5098740;28;20024;-54
2021/01/07 03:50:40;;;;;;;38.70;21.35;;;-2.10;99.90;;;;;;5098672;28;20020;-54
2021/01/07 03:53:06;;;;;;;38.20;21.23;;;-2.10;99.90;;;;;;5098284;28;20031;-54
2021/01/07 03:55:32;;;;;;;37.05;20.80;;;-2.10;99.90;;;;;;5097654;28;20056;-54
2021/01/07 03:57:57;;;;;;;35.80;20.27;;;-2.10;99.90;;;;;;5097950;28;20028;-54
2021/01/07 04:00:23;;;;;;;39.17;20.43;;;-2.10;99.90;;;;;;5098411;28;20031;-54
2021/01/07 04:02:49;;;;;;;41.37;19.60;;;-2.20;99.90;;;;;;5098061;28;20028;-54
2021/01/07 04:05:14;;;;;;;37.73;17.97;;;-2.20;99.90;;;;;;5098543;28;20048;-54
2021/01/07 04:07:40;;;;;;;37.87;18.13;;;-2.30;99.90;;;;;;5097906;28;20031;-54
2021/01/07 04:10:07;;;;;;;32.73;17.20;;;-2.30;99.90;;;;;;5096968;28;20032;-54
2021/01/07 04:12:34;;;;;;;39.83;20.43;;;-2.30;99.90;;;;;;5098146;28;20047;-54
2021/01/07 04:15:06;;;;;;;34.13;18.40;;;-2.40;99.90;;;;;;5097661;28;20040;-54
2021/01/07 04:17:32;;;;;;;31.50;17.00;;;-2.40;99.90;;;;;;5097989;28;20237;-54
2021/01/07 04:19:58;;;;;;;33.40;18.85;;;-2.30;99.90;;;;;;5093410;28;20115;-54
2021/01/07 04:22:25;;;;;;;29.97;15.57;;;-2.40;99.90;;;;;;5077504;28;20665;-54
2021/01/07 04:24:51;;;;;;;34.65;17.05;;;-2.50;99.90;;;;;;5077566;28;20075;-54
2021/01/07 04:27:16;;;;;;;31.00;16.25;;;-2.50;99.90;;;;;;5077440;28;20706;-54
2021/01/07 04:29:45;;;;;;;33.95;17.40;;;-2.50;99.90;;;;;;5077432;28;20086;-54
2021/01/07 04:32:11;;;;;;;36.07;18.50;;;-2.40;99.90;;;;;;5077545;28;20036;-54
2021/01/07 04:34:37;;;;;;;39.97;22.03;;;-2.30;99.90;;;;;;5077246;28;20253;-54
2021/01/07 04:37:02;;;;;;;41.55;20.75;;;-2.20;99.90;;;;;;5081956;28;20142;-54
2021/01/07 04:39:28;;;;;;;43.65;20.90;;;-2.30;99.90;;;;;;5097502;28;20110;-53
2021/01/07 04:41:54;;;;;;;44.83;21.53;;;-2.30;99.90;;;;;;5097198;28;20028;-53
2021/01/07 04:44:21;;;;;;;57.07;26.93;;;-2.40;99.90;;;;;;5097543;28;20023;-54
2021/01/07 04:46:47;;;;;;;58.35;24.25;;;-2.50;99.90;;;;;;5097751;28;20107;-53
2021/01/07 04:49:13;;;;;;;69.20;26.30;;;-2.50;99.90;;;;;;5097281;28;20646;-54
2021/01/07 04:51:39;;;;;;;54.87;25.70;;;-2.60;99.90;;;;;;5097596;28;19904;-54
2021/01/07 04:54:05;;;;;;;62.80;26.73;;;-2.40;99.90;;;;;;5097479;28;20310;-54
2021/01/07 04:56:31;;;;;;;60.20;28.05;;;-2.50;99.90;;;;;;5097576;28;20024;-53
2021/01/07 04:58:57;;;;;;;72.23;24.97;;;-2.50;99.90;;;;;;5096037;28;20084;-53
2021/01/07 05:01:22;;;;;;;92.13;29.20;;;-2.50;99.90;;;;;;5097132;28;20028;-53
2021/01/07 05:03:51;;;;;;;79.87;26.30;;;-2.60;99.90;;;;;;5096962;28;20077;-53
2021/01/07 05:06:25;;;;;;;69.60;25.40;;;-2.50;99.90;;;;;;5096503;28;20465;-53
2021/01/07 05:09:11;;;;;;;59.50;24.93;;;-2.50;99.90;;;;;;5096867;28;20534;-53
2021/01/07 05:11:36;;;;;;;100.60;26.95;;;-2.50;99.90;;;;;;5096808;28;20313;-53
2021/01/07 05:14:06;;;;;;;66.70;25.65;;;-2.50;99.90;;;;;;5097220;28;20162;-53
2021/01/07 05:16:33;;;;;;;98.13;26.07;;;-2.50;99.90;;;;;;5096996;28;20020;-54
2021/01/07 05:19:02;;;;;;;105.93;30.23;;;-2.50;99.90;;;;;;5097034;28;20207;-54
2021/01/07 05:21:28;;;;;;;138.17;32.47;;;-2.50;99.90;;;;;;5096607;28;20246;-53
2021/01/07 05:23:54;;;;;;;97.30;24.27;;;-2.50;99.90;;;;;;5096691;28;20274;-53
2021/01/07 05:26:21;;;;;;;114.70;28.50;;;-2.60;99.90;;;;;;5095252;28;20433;-53
2021/01/07 05:28:49;;;;;;;137.03;28.87;;;-2.60;99.90;;;;;;5096532;28;20219;-53
2021/01/07 05:31:23;;;;;;;97.57;27.30;;;-2.60;99.90;;;;;;5096612;28;20278;-53
2021/01/07 05:33:50;;;;;;;114.17;26.03;;;-2.70;99.90;;;;;;5097216;28;20219;-53
2021/01/07 05:36:36;;;;;;;101.10;27.43;;;-2.60;99.90;;;;;;5096550;28;20746;-53
2021/01/07 05:39:06;;;;;;;74.17;25.07;;;-2.50;99.90;;;;;;5096359;28;20094;-53
2021/01/07 05:41:35;;;;;;;81.10;27.83;;;-2.40;99.90;;;;;;5096877;28;20108;-53
2021/01/07 05:44:03;;;;;;;92.17;23.33;;;-2.30;99.90;;;;;;5096747;28;20254;-53
2021/01/07 05:46:32;;;;;;;109.70;26.63;;;-2.20;99.90;;;;;;5096642;28;20454;-54
2021/01/07 05:48:58;;;;;;;87.30;24.50;;;-2.20;99.90;;;;;;5096752;28;20051;-53
2021/01/07 05:51:26;;;;;;;92.45;26.55;;;-2.10;99.90;;;;;;5096450;28;20058;-53
2021/01/07 05:53:59;;;;;;;61.40;23.65;;;-2.20;99.90;;;;;;5096591;28;20694;-53
2021/01/07 05:56:26;;;;;;;78.70;24.55;;;-2.10;99.90;;;;;;5095346;28;20257;-53
2021/01/07 05:58:55;;;;;;;69.33;23.33;;;-2.00;99.90;;;;;;5096683;28;20032;-53
2021/01/07 06:01:23;;;;;;;88.83;25.67;;;-2.00;99.90;;;;;;5096642;28;20066;-53
2021/01/07 06:03:53;;;;;;;72.27;23.40;;;-2.00;99.90;;;;;;5096736;28;20272;-53
2021/01/07 06:06:21;;;;;;;49.67;20.83;;;-1.90;99.90;;;;;;5094896;28;20078;-53
2021/01/07 06:08:55;;;;;;;93.97;26.40;;;-1.90;99.90;;;;;;5096337;28;20244;-53
2021/01/07 06:11:24;;;;;;;62.15;24.55;;;-2.00;99.90;;;;;;5096015;28;20310;-53
2021/01/07 06:13:54;;;;;;;66.70;24.10;;;-2.00;99.90;;;;;;5096216;28;20361;-53
2021/01/07 06:16:21;;;;;;;59.90;22.43;;;-2.00;99.90;;;;;;5094992;28;20214;-53
2021/01/07 06:18:47;;;;;;;70.00;23.47;;;-1.90;99.90;;;;;;5097440;28;20229;-53
2021/01/07 06:21:14;;;;;;;62.63;22.17;;;-1.80;99.90;;;;;;5099995;28;20402;-53
2021/01/07 06:23:44;;;;;;;85.13;24.93;;;-1.70;99.90;;;;;;5099944;28;20636;-53
2021/01/07 06:26:26;;;;;;;95.00;28.57;;;-1.60;99.90;;;;;;5099884;28;20241;-53
2021/01/07 06:29:00;;;;;;;137.30;26.57;;;-1.70;99.90;;;;;;5100024;28;20244;-53
2021/01/07 06:31:36;;;;;;;85.43;25.87;;;-1.80;99.90;;;;;;5099908;28;20060;-53
2021/01/07 06:34:03;;;;;;;73.00;22.50;;;-1.80;99.90;;;;;;5100076;28;20248;-53
2021/01/07 06:36:46;;;;;;;92.30;25.50;;;-1.70;99.90;;;;;;5100231;28;20264;-53
2021/01/07 06:39:12;;;;;;;76.20;26.80;;;-1.70;99.90;;;;;;5099844;28;20555;-53
2021/01/07 06:41:38;;;;;;;99.83;30.57;;;-1.70;99.90;;;;;;5099978;28;20024;-53
2021/01/07 06:44:05;;;;;;;92.75;27.05;;;-1.60;99.90;;;;;;5099337;28;20024;-53
2021/01/07 06:46:43;;;;;;;121.40;26.10;;;-1.60;99.90;;;;;;5099799;28;20046;-53
2021/01/07 06:49:28;;;;;;;142.83;30.10;;;-1.60;99.90;;;;;;5099867;28;20239;-53
2021/01/07 06:52:05;;;;;;;140.50;27.13;;;-1.60;99.90;;;;;;5099805;28;20241;-54
2021/01/07 06:54:36;;;;;;;119.43;27.20;;;-1.60;99.90;;;;;;5100007;28;20240;-53
2021/01/07 06:57:05;;;;;;;115.45;28.80;;;-1.60;99.90;;;;;;5099457;28;20228;-53
2021/01/07 06:59:32;;;;;;;99.35;25.90;;;-1.60;99.90;;;;;;5099238;28;20555;-54
2021/01/07 07:01:59;;;;;;;106.63;26.80;;;-1.60;99.90;;;;;;5099268;28;20052;-54
2021/01/07 07:04:30;;;;;;;103.83;26.77;;;-1.60;99.90;;;;;;5099081;28;20263;-54
2021/01/07 07:07:03;;;;;;;125.00;25.67;;;-1.60;99.90;;;;;;5099020;28;20702;-54
2021/01/07 07:09:38;;;;;;;125.10;24.47;;;-1.60;99.90;;;;;;5097710;28;20367;-54
2021/01/07 07:12:04;;;;;;;99.77;27.13;;;-1.60;99.90;;;;;;5099229;28;20035;-54
2021/01/07 07:14:32;;;;;;;83.17;25.70;;;-1.50;99.90;;;;;;5098078;28;20045;-54
2021/01/07 07:17:05;;;;;;;130.70;27.87;;;-1.50;99.90;;;;;;5099275;28;20294;-54
2021/01/07 07:19:30;;;;;;;73.93;20.63;;;-1.60;99.90;;;;;;5098299;28;20264;-54
2021/01/07 07:22:00;;;;;;;118.97;25.97;;;-1.50;99.90;;;;;;5078592;28;20339;-54
2021/01/07 07:24:39;;;;;;;104.80;25.37;;;-1.60;99.90;;;;;;5078743;28;20039;-54
2021/01/07 07:27:09;;;;;;;95.20;25.77;;;-1.50;99.90;;;;;;5078796;28;20260;-54
2021/01/07 07:29:37;;;;;;;162.13;31.60;;;-1.60;99.90;;;;;;5078465;28;20253;-54
2021/01/07 07:32:26;;;;;;;111.55;27.40;;;-1.60;99.90;;;;;;5077140;28;20699;-54
2021/01/07 07:34:54;;;;;;;124.30;29.55;;;-1.60;99.90;;;;;;5078300;28;20660;-54
2021/01/07 07:37:25;;;;;;;189.10;34.93;;;-1.60;99.90;;;;;;5078399;28;20252;-54
2021/01/07 07:40:00;;;;;;;195.37;38.50;;;-1.60;99.90;;;;;;5078574;28;20245;-54
2021/01/07 07:42:28;;;;;;;156.85;33.65;;;-1.60;99.90;;;;;;5078355;28;20265;-54
2021/01/07 07:44:54;;;;;;;89.60;27.13;;;-1.50;99.90;;;;;;5078168;28;20238;-54
2021/01/07 07:47:22;;;;;;;99.43;26.53;;;-1.50;99.90;;;;;;5078307;28;20652;-54
2021/01/07 07:49:54;;;;;;;83.50;26.40;;;-1.40;99.90;;;;;;5077947;28;20031;-54
2021/01/07 07:52:21;;;;;;;98.27;29.67;;;-1.40;99.90;;;;;;5077880;28;20058;-54
2021/01/07 07:55:06;;;;;;;94.23;27.43;;;-1.40;99.90;;;;;;5078452;28;20555;-54
2021/01/07 07:57:48;;;;;;;118.13;31.40;;;-1.30;99.90;;;;;;5077949;28;20139;-54
2021/01/07 08:00:18;;;;;;;105.15;28.70;;;-1.40;99.90;;;;;;5077848;28;20448;-54
2021/01/07 08:02:44;;;;;;;83.20;28.33;;;-1.40;99.90;;;;;;5077972;28;20253;-54
2021/01/07 08:05:32;;;;;;;85.20;28.30;;;-1.40;99.90;;;;;;5077655;28;20075;-54
2021/01/07 08:07:58;;;;;;;106.25;32.05;;;-1.30;99.90;;;;;;5077897;28;20560;-54
2021/01/07 08:10:25;;;;;;;94.33;29.97;;;-1.30;99.90;;;;;;5076345;28;20247;-54
2021/01/07 08:12:51;;;;;;;105.17;31.57;;;-1.30;99.90;;;;;;5076458;28;20216;-54
2021/01/07 08:15:28;;;;;;;106.27;31.63;;;-1.40;99.90;;;;;;5077136;28;20238;-54
2021/01/07 08:17:53;;;;;;;128.77;29.67;;;-1.40;99.90;;;;;;5077708;28;20057;-54
2021/01/07 08:20:24;;;;;;;84.40;26.50;;;-1.40;99.90;;;;;;5077628;28;20211;-54
2021/01/07 08:22:51;;;;;;;68.80;26.13;;;-1.40;99.90;;;;;;5077238;28;20033;-54
2021/01/07 08:25:29;;;;;;;93.13;30.07;;;-1.40;99.90;;;;;;5077718;28;20061;-54
2021/01/07 08:27:58;;;;;;;135.15;31.90;;;-1.40;99.90;;;;;;5077176;28;20036;-54
2021/01/07 08:30:25;;;;;;;170.03;37.33;;;-1.40;99.90;;;;;;5077631;28;20564;-54
2021/01/07 08:32:55;;;;;;;142.20;36.10;;;-1.50;99.90;;;;;;5077432;28;20423;-54
2021/01/07 08:35:21;;;;;;;101.47;28.73;;;-1.50;99.90;;;;;;5077105;28;20368;-54
2021/01/07 08:37:46;;;;;;;84.03;27.80;;;-1.50;99.90;;;;;;5086707;28;20051;-54
2021/01/07 08:40:12;;;;;;;67.83;23.90;;;-1.40;99.90;;;;;;5097364;28;20480;-53
2021/01/07 08:42:39;;;;;;;83.03;26.53;;;-1.40;99.90;;;;;;5097138;28;20111;-55
2021/01/07 08:45:07;;;;;;;74.05;26.70;;;-1.10;99.90;;;;;;5096979;28;20675;-53
2021/01/07 08:47:33;;;;;;;71.40;27.87;;;-1.10;99.90;;;;;;5096300;28;20069;-53
2021/01/07 08:50:08;;;;;;;69.17;24.43;;;-1.10;99.90;;;;;;5096247;28;20248;-53
2021/01/07 08:52:53;;;;;;;64.95;24.95;;;-1.00;99.90;;;;;;5097468;28;20651;-53
2021/01/07 08:55:20;;;;;;;55.27;23.07;;;-1.10;99.90;;;;;;5097197;28;20265;-58
2021/01/07 08:57:46;;;;;;;49.10;21.97;;;-1.00;99.90;;;;;;5097253;28;20264;-54
2021/01/07 09:00:19;;;;;;;46.03;21.47;;;-1.00;99.90;;;;;;5096940;28;20260;-54
2021/01/07 09:02:46;;;;;;;77.25;22.88;;;-1.00;99.90;;;;;;5096911;28;20628;-56
2021/01/07 09:05:12;;;;;;;54.00;21.60;;;-1.00;99.90;;;;;;5097021;28;19927;-54
2021/01/07 09:07:37;;;;;;;55.63;22.43;;;-0.80;99.90;;;;;;5097300;28;20622;-55
2021/01/07 09:10:04;;;;;;;45.93;20.37;;;-0.80;99.90;;;;;;5096882;28;20255;-54
2021/01/07 09:12:32;;;;;;;58.95;22.90;;;-0.90;99.90;;;;;;5096905;28;20028;-57
2021/01/07 09:15:12;;;;;;;46.13;21.33;;;-1.00;99.90;;;;;;5097022;28;20248;-55
2021/01/07 09:17:38;;;;;;;61.75;21.50;;;-1.10;99.90;;;;;;5096384;28;20347;-55
2021/01/07 09:20:13;;;;;;;46.83;18.97;;;-1.10;99.90;;;;;;5091769;28;20379;-55
2021/01/07 09:22:39;;;;;;;38.20;19.00;;;-1.10;99.90;;;;;;5075556;28;20342;-55
2021/01/07 09:25:07;;;;;;;38.30;18.83;;;-1.20;99.90;;;;;;5076331;28;20258;-55
2021/01/07 09:27:33;;;;;;;46.43;19.20;;;-1.30;99.90;;;;;;5076286;28;20315;-55
2021/01/07 09:29:59;;;;;;;40.23;18.40;;;-1.00;99.90;;;;;;5076427;28;20240;-55
2021/01/07 09:32:24;;;;;;;44.57;18.83;;;-1.10;99.90;;;;;;5076422;28;19999;-58
2021/01/07 09:34:50;;;;;;;44.30;19.70;;;-0.90;99.90;;;;;;5084601;28;20112;-56
2021/01/07 09:37:21;;;;;;;48.90;19.77;;;-0.80;99.90;;;;;;5095317;28;20024;-56
2021/01/07 09:39:49;;;;;;;45.80;17.85;;;-0.90;99.90;;;;;;5102767;28;20032;-55
2021/01/07 09:42:18;;;;;;;39.80;17.50;;;-0.90;99.90;;;;;;5096317;28;20706;-55
2021/01/07 09:44:45;;;;;;;35.33;18.73;;;-0.90;99.90;;;;;;5089063;28;20380;-55
2021/01/07 09:47:11;;;;;;;30.10;16.70;;;-0.90;99.90;;;;;;5094146;28;20060;-55
2021/01/07 09:49:37;;;;;;;32.23;16.17;;;-1.10;99.90;;;;;;5095242;28;20537;-54
2021/01/07 09:52:04;;;;;;;31.73;15.73;;;-0.80;99.90;;;;;;5095192;28;19911;-56
2021/01/07 09:54:30;;;;;;;29.27;15.33;;;-1.10;99.90;;;;;;5082116;28;20579;-55
2021/01/07 09:56:57;;;;;;;34.60;16.50;;;-0.90;99.90;;;;;;5094090;28;20281;-55
2021/01/07 09:59:24;;;;;;;36.83;14.97;;;-1.00;99.90;;;;;;5087389;28;20440;-55
2021/01/07 10:01:57;;;;;;;31.93;16.70;;;-0.90;99.90;;;;;;5089160;28;20824;-55
2021/01/07 10:04:23;;;;;;;32.03;16.63;;;-0.60;99.90;;;;;;5087614;28;20258;-58
2021/01/07 10:06:50;;;;;;;36.93;17.70;;;-0.40;99.90;;;;;;5088969;28;20024;-58
2021/01/07 10:09:16;;;;;;;35.10;17.65;;;-0.50;99.90;;;;;;5088540;28;20024;-57
2021/01/07 10:11:42;;;;;;;34.83;16.60;;;-0.60;99.90;;;;;;5083678;28;20725;-58
2021/01/07 10:14:07;;;;;;;36.57;16.20;;;-0.60;99.90;;;;;;5087847;28;20268;-59
2021/01/07 10:16:33;;;;;;;35.27;17.50;;;-0.70;99.90;;;;;;5087809;28;20041;-59
2021/01/07 10:18:59;;;;;;;34.43;18.00;;;-0.80;99.90;;;;;;5086916;28;20033;-59
2021/01/07 10:21:25;;;;;;;38.10;19.40;;;-0.70;99.90;;;;;;5089129;28;20034;-59
2021/01/07 10:23:52;;;;;;;44.77;19.50;;;-0.80;99.90;;;;;;5087979;28;20271;-59
2021/01/07 10:26:19;;;;;;;42.83;19.00;;;-0.80;99.90;;;;;;5086642;28;20548;-59
2021/01/07 10:28:46;;;;;;;41.53;19.30;;;-0.90;99.90;;;;;;5088246;28;20152;-59
2021/01/07 10:31:13;;;;;;;77.23;21.67;;;-0.70;99.90;;;;;;5087687;28;20299;-60
2021/01/07 10:33:41;;;;;;;67.30;22.63;;;-0.70;99.90;;;;;;5086525;28;20252;-59
2021/01/07 10:36:07;;;;;;;52.07;20.07;;;-0.70;99.90;;;;;;5088521;28;20301;-58
2021/01/07 10:38:36;;;;;;;49.85;18.45;;;-0.80;99.90;;;;;;5086116;28;20400;-58
2021/01/07 10:41:05;;;;;;;111.20;25.07;;;-0.70;99.90;;;;;;5086450;28;20070;-58
2021/01/07 10:43:32;;;;;;;100.83;23.50;;;-0.70;99.90;;;;;;5085758;28;20618;-58
2021/01/07 10:45:58;;;;;;;37.37;18.50;;;-0.80;99.90;;;;;;5088264;28;20215;-58
2021/01/07 10:48:25;;;;;;;55.55;20.95;;;-0.70;99.90;;;;;;5086535;28;20226;-58
2021/01/07 10:50:51;;;;;;;69.93;25.20;;;-0.40;99.90;;;;;;5087585;28;20168;-60
2021/01/07 10:53:35;;;;;;;58.43;25.00;;;-0.30;99.90;;;;;;5086279;28;20264;-60
2021/01/07 10:56:09;;;;;;;49.60;24.07;;;-0.20;99.90;;;;;;5087833;28;20252;-61
2021/01/07 10:59:25;;;;;;;54.10;21.93;;;0.00;99.90;;;;;;5087844;28;20081;-62
2021/01/07 11:02:18;;;;;;;68.97;23.13;;;-0.30;99.90;;;;;;5067138;28;20103;-61
2021/01/07 11:05:05;;;;;;;92.87;24.77;;;-0.30;99.90;;;;;;5045831;28;20401;-60
2021/01/07 11:08:15;;;;;;;83.30;24.03;;;-0.30;99.90;;;;;;5083743;28;20056;-59
2021/01/07 11:10:52;;;;;;;57.83;23.43;;;-0.40;99.90;;;;;;5082260;28;20219;-59
2021/01/07 11:13:23;;;;;;;51.90;20.80;;;-0.20;99.90;;;;;;5087988;28;20633;-59
2021/01/07 11:15:55;;;;;;;49.87;21.03;;;0.00;99.90;;;;;;5086438;28;20608;-57
2021/01/07 11:18:33;;;;;;;56.00;20.47;;;0.10;99.90;;;;;;5085836;28;20236;-57
2021/01/07 11:21:02;;;;;;;57.50;18.90;;;0.10;99.90;;;;;;5088227;28;20364;-57
2021/01/07 11:23:28;;;;;;;48.57;20.10;;;0.10;99.90;;;;;;5086980;28;20321;-57
2021/01/07 11:25:54;;;;;;;54.50;20.90;;;0.20;99.90;;;;;;5092894;28;20220;-57
2021/01/07 11:28:20;;;;;;;51.67;22.40;;;0.00;99.90;;;;;;5097201;28;20720;-57
2021/01/07 11:30:47;;;;;;;71.23;23.27;;;0.00;99.90;;;;;;5094987;28;20053;-58
2021/01/07 11:33:16;;;;;;;51.63;21.43;;;0.20;99.90;;;;;;5097226;28;20465;-58
2021/01/07 11:35:46;;;;;;;75.90;21.93;;;0.30;99.90;;;;;;5096661;28;20318;-59
2021/01/07 11:38:38;;;;;;;106.97;25.30;;;0.20;99.90;;;;;;5099004;28;20455;-59
2021/01/07 11:41:27;;;;;;;66.83;22.70;;;0.10;99.90;;;;;;5094956;28;20048;-59
2021/01/07 11:44:07;;;;;;;45.57;21.27;;;-0.10;99.90;;;;;;5095247;28;20417;-58
2021/01/07 11:46:34;;;;;;;58.20;21.85;;;0.20;99.90;;;;;;5087506;28;20239;-58
2021/01/07 11:49:04;;;;;;;47.57;19.23;;;0.30;99.90;;;;;;5094819;28;20368;-58
2021/01/07 11:51:30;;;;;;;50.80;22.35;;;0.40;99.90;;;;;;5097518;28;20401;-58
2021/01/07 11:54:00;;;;;;;57.47;20.03;;;0.20;99.90;;;;;;5096235;28;20061;-54
2021/01/07 11:56:25;;;;;;;49.93;20.57;;;0.20;99.90;;;;;;5095802;28;19912;-54
2021/01/07 11:58:52;;;;;;;48.47;21.87;;;0.10;99.90;;;;;;5095379;28;20062;-53
2021/01/07 12:01:18;;;;;;;48.27;18.20;;;0.20;99.90;;;;;;5088555;28;20055;-53
2021/01/07 12:03:44;;;;;;;44.57;19.03;;;0.30;99.90;;;;;;5094332;28;20063;-56
2021/01/07 12:06:15;;;;;;;45.35;22.40;;;0.20;99.90;;;;;;5093834;28;20110;-54
2021/01/07 12:09:18;;;;;;;40.70;18.60;;;0.50;99.90;;;;;;5094668;28;20070;-54
2021/01/07 12:11:53;;;;;;;51.47;20.83;;;0.40;99.90;;;;;;5092368;28;20265;-54
2021/01/07 12:14:41;;;;;;;57.67;19.13;;;0.50;99.90;;;;;;5094146;28;20479;-53
2021/01/07 12:17:09;;;;;;;41.25;18.60;;;0.40;99.90;;;;;;5092428;28;20067;-54
2021/01/07 12:19:35;;;;;;;43.13;17.10;;;0.70;99.90;;;;;;5094267;28;20188;-53
2021/01/07 12:22:06;;;;;;;38.80;18.25;;;0.60;99.90;;;;;;5090092;28;20042;-57
2021/01/07 12:24:32;;;;;;;40.37;17.87;;;0.60;99.90;;;;;;5094164;28;20359;-53
2021/01/07 12:26:59;;;;;;;51.23;20.13;;;0.40;99.90;;;;;;5093867;28;20272;-53
2021/01/07 12:29:25;;;;;;;44.87;20.47;;;0.10;99.90;;;;;;5093557;28;20305;-53
2021/01/07 12:31:58;;;;;;;43.20;18.45;;;0.30;99.90;;;;;;5089308;28;20127;-53
2021/01/07 12:34:45;;;;;;;43.55;17.13;;;0.30;99.90;;;;;;5102674;28;20418;-53